sensor_id;sensor_type;location;lat;lon;timestamp;P1;durP1;ratioP1;P2;durP2;ratioP2
11763;SDS011;5939;56.522;14.950;2022-09-09T00:01:49;2.23;;;1.50;;
11763;SDS011;5939;56.522;14.950;2022-09-09T00:04:29;2.63;;;1.60;;
11763;SDS011;5939;56.522;14.950;2022-09-09T00:09:49;1.50;;;1.40;;
11763;SDS011;5939;56.522;14.950;2022-09-09T00:15:07;3.40;;;1.50;;
11763;SDS011;5939;56.522;14.950;2022-09-09T00:20:28;3.47;;;1.40;;
11763;SDS011;5939;56.522;14.950;2022-09-09T00:23:19;1.70;;;1.53;;
11763;SDS011;5939;56.522;14.950;2022-09-09T00:26:38;2.57;;;1.47;;
11763;SDS011;5939;56.522;14.950;2022-09-09T00:31:43;2.20;;;1.40;;
11763;SDS011;5939;56.522;14.950;2022-09-09T00:34:11;4.00;;;1.70;;
11763;SDS011;5939;56.522;14.950;2022-09-09T00:36:43;4.00;;;1.47;;
11763;SDS011;5939;56.522;14.950;2022-09-09T00:39:13;2.27;;;1.30;;
11763;SDS011;5939;56.522;14.950;2022-09-09T00:44:31;4.07;;;1.70;;
11763;SDS011;5939;56.522;14.950;2022-09-09T00:52:39;3.47;;;1.70;;
11763;SDS011;5939;56.522;14.950;2022-09-09T00:57:40;1.63;;;1.43;;
11763;SDS011;5939;56.522;14.950;2022-09-09T01:06:02;3.07;;;1.60;;
11763;SDS011;5939;56.522;14.950;2022-09-09T01:11:17;3.57;;;1.70;;
11763;SDS011;5939;56.522;14.950;2022-09-09T01:13:47;2.77;;;1.70;;
11763;SDS011;5939;56.522;14.950;2022-09-09T01:16:24;4.70;;;1.70;;
11763;SDS011;5939;56.522;14.950;2022-09-09T01:18:52;2.10;;;1.60;;
11763;SDS011;5939;56.522;14.950;2022-09-09T01:21:22;2.97;;;1.60;;
11763;SDS011;5939;56.522;14.950;2022-09-09T01:26:44;4.40;;;1.80;;
11763;SDS011;5939;56.522;14.950;2022-09-09T01:29:14;3.40;;;1.73;;
11763;SDS011;5939;56.522;14.950;2022-09-09T01:31:55;3.43;;;1.60;;
11763;SDS011;5939;56.522;14.950;2022-09-09T01:34:27;2.73;;;1.70;;
11763;SDS011;5939;56.522;14.950;2022-09-09T01:39:31;3.60;;;2.03;;
11763;SDS011;5939;56.522;14.950;2022-09-09T01:41:58;5.60;;;1.80;;
11763;SDS011;5939;56.522;14.950;2022-09-09T01:44:24;3.07;;;1.60;;
11763;SDS011;5939;56.522;14.950;2022-09-09T01:46:51;3.07;;;1.87;;
11763;SDS011;5939;56.522;14.950;2022-09-09T01:49:17;2.27;;;1.60;;
11763;SDS011;5939;56.522;14.950;2022-09-09T01:51:43;3.93;;;1.63;;
11763;SDS011;5939;56.522;14.950;2022-09-09T01:54:14;4.37;;;1.80;;
11763;SDS011;5939;56.522;14.950;2022-09-09T02:02:11;1.97;;;1.50;;
11763;SDS011;5939;56.522;14.950;2022-09-09T02:04:43;2.30;;;1.50;;
11763;SDS011;5939;56.522;14.950;2022-09-09T02:10:00;3.93;;;1.90;;
11763;SDS011;5939;56.522;14.950;2022-09-09T02:13:12;3.13;;;1.70;;
11763;SDS011;5939;56.522;14.950;2022-09-09T02:15:42;3.73;;;1.80;;
11763;SDS011;5939;56.522;14.950;2022-09-09T02:18:37;3.63;;;2.00;;
11763;SDS011;5939;56.522;14.950;2022-09-09T02:21:16;3.40;;;1.90;;
11763;SDS011;5939;56.522;14.950;2022-09-09T02:23:43;3.40;;;1.70;;
11763;SDS011;5939;56.522;14.950;2022-09-09T02:26:11;2.60;;;1.90;;
11763;SDS011;5939;56.522;14.950;2022-09-09T02:28:44;2.87;;;1.63;;
11763;SDS011;5939;56.522;14.950;2022-09-09T02:31:12;2.30;;;1.73;;
11763;SDS011;5939;56.522;14.950;2022-09-09T02:33:41;4.17;;;2.10;;
11763;SDS011;5939;56.522;14.950;2022-09-09T02:36:11;3.13;;;1.90;;
11763;SDS011;5939;56.522;14.950;2022-09-09T02:38:42;2.43;;;1.80;;
11763;SDS011;5939;56.522;14.950;2022-09-09T02:41:15;3.40;;;1.80;;
11763;SDS011;5939;56.522;14.950;2022-09-09T02:44:00;2.97;;;2.07;;
11763;SDS011;5939;56.522;14.950;2022-09-09T02:46:36;1.70;;;1.60;;
11763;SDS011;5939;56.522;14.950;2022-09-09T02:49:24;4.07;;;1.80;;
11763;SDS011;5939;56.522;14.950;2022-09-09T02:55:06;5.47;;;2.27;;
11763;SDS011;5939;56.522;14.950;2022-09-09T02:57:41;2.80;;;1.90;;
11763;SDS011;5939;56.522;14.950;2022-09-09T03:00:10;3.30;;;1.90;;
11763;SDS011;5939;56.522;14.950;2022-09-09T03:02:36;3.33;;;2.10;;
11763;SDS011;5939;56.522;14.950;2022-09-09T03:05:02;3.20;;;2.03;;
11763;SDS011;5939;56.522;14.950;2022-09-09T03:07:28;2.70;;;1.80;;
11763;SDS011;5939;56.522;14.950;2022-09-09T03:09:53;4.80;;;1.70;;
11763;SDS011;5939;56.522;14.950;2022-09-09T03:12:19;3.03;;;1.83;;
11763;SDS011;5939;56.522;14.950;2022-09-09T03:14:45;3.90;;;2.00;;
11763;SDS011;5939;56.522;14.950;2022-09-09T03:17:11;5.43;;;2.10;;
11763;SDS011;5939;56.522;14.950;2022-09-09T03:19:37;3.63;;;2.10;;
11763;SDS011;5939;56.522;14.950;2022-09-09T03:22:04;4.53;;;2.30;;
11763;SDS011;5939;56.522;14.950;2022-09-09T03:24:30;3.00;;;2.00;;
11763;SDS011;5939;56.522;14.950;2022-09-09T03:26:56;2.40;;;1.70;;
11763;SDS011;5939;56.522;14.950;2022-09-09T03:29:21;5.70;;;2.17;;
11763;SDS011;5939;56.522;14.950;2022-09-09T03:31:47;3.70;;;1.90;;
11763;SDS011;5939;56.522;14.950;2022-09-09T03:34:12;2.77;;;1.80;;
11763;SDS011;5939;56.522;14.950;2022-09-09T03:36:41;2.47;;;2.07;;
11763;SDS011;5939;56.522;14.950;2022-09-09T03:39:07;4.90;;;2.23;;
11763;SDS011;5939;56.522;14.950;2022-09-09T03:41:32;3.80;;;2.27;;
11763;SDS011;5939;56.522;14.950;2022-09-09T03:43:59;6.10;;;2.50;;
11763;SDS011;5939;56.522;14.950;2022-09-09T03:46:25;3.27;;;1.93;;
11763;SDS011;5939;56.522;14.950;2022-09-09T03:48:51;4.23;;;2.10;;
11763;SDS011;5939;56.522;14.950;2022-09-09T03:51:17;3.00;;;1.90;;
11763;SDS011;5939;56.522;14.950;2022-09-09T03:53:43;3.40;;;2.20;;
11763;SDS011;5939;56.522;14.950;2022-09-09T03:56:09;4.27;;;2.10;;
11763;SDS011;5939;56.522;14.950;2022-09-09T03:58:36;4.80;;;2.10;;
11763;SDS011;5939;56.522;14.950;2022-09-09T04:01:06;3.90;;;1.93;;
11763;SDS011;5939;56.522;14.950;2022-09-09T04:03:39;5.37;;;2.30;;
11763;SDS011;5939;56.522;14.950;2022-09-09T04:06:06;4.90;;;2.40;;
11763;SDS011;5939;56.522;14.950;2022-09-09T04:08:34;2.80;;;2.00;;
11763;SDS011;5939;56.522;14.950;2022-09-09T04:11:01;3.57;;;2.40;;
11763;SDS011;5939;56.522;14.950;2022-09-09T04:13:29;4.67;;;1.93;;
11763;SDS011;5939;56.522;14.950;2022-09-09T04:15:57;2.43;;;1.97;;
11763;SDS011;5939;56.522;14.950;2022-09-09T04:18:24;3.37;;;1.90;;
11763;SDS011;5939;56.522;14.950;2022-09-09T04:20:51;3.73;;;2.30;;
11763;SDS011;5939;56.522;14.950;2022-09-09T04:23:18;4.13;;;2.40;;
11763;SDS011;5939;56.522;14.950;2022-09-09T04:25:47;3.20;;;2.10;;
11763;SDS011;5939;56.522;14.950;2022-09-09T04:28:17;3.93;;;2.07;;
11763;SDS011;5939;56.522;14.950;2022-09-09T04:30:44;3.77;;;1.90;;
11763;SDS011;5939;56.522;14.950;2022-09-09T04:33:10;4.30;;;2.57;;
11763;SDS011;5939;56.522;14.950;2022-09-09T04:35:37;2.70;;;2.20;;
11763;SDS011;5939;56.522;14.950;2022-09-09T04:38:03;2.57;;;1.80;;
11763;SDS011;5939;56.522;14.950;2022-09-09T04:40:32;3.30;;;2.37;;
11763;SDS011;5939;56.522;14.950;2022-09-09T04:42:58;3.83;;;2.03;;
11763;SDS011;5939;56.522;14.950;2022-09-09T04:45:25;5.17;;;2.27;;
11763;SDS011;5939;56.522;14.950;2022-09-09T04:47:51;3.57;;;2.30;;
11763;SDS011;5939;56.522;14.950;2022-09-09T04:50:17;3.03;;;1.90;;
11763;SDS011;5939;56.522;14.950;2022-09-09T04:52:43;4.30;;;2.10;;
11763;SDS011;5939;56.522;14.950;2022-09-09T04:55:09;4.20;;;2.30;;
11763;SDS011;5939;56.522;14.950;2022-09-09T04:57:35;3.03;;;2.10;;
11763;SDS011;5939;56.522;14.950;2022-09-09T05:00:00;4.93;;;2.13;;
11763;SDS011;5939;56.522;14.950;2022-09-09T05:02:27;3.80;;;2.90;;
11763;SDS011;5939;56.522;14.950;2022-09-09T05:04:53;5.20;;;2.47;;
11763;SDS011;5939;56.522;14.950;2022-09-09T05:07:18;4.87;;;2.50;;
11763;SDS011;5939;56.522;14.950;2022-09-09T05:09:44;4.43;;;2.27;;
11763;SDS011;5939;56.522;14.950;2022-09-09T05:12:10;2.57;;;1.70;;
11763;SDS011;5939;56.522;14.950;2022-09-09T05:14:36;2.53;;;2.00;;
11763;SDS011;5939;56.522;14.950;2022-09-09T05:17:02;2.97;;;2.27;;
11763;SDS011;5939;56.522;14.950;2022-09-09T05:19:28;4.20;;;2.07;;
11763;SDS011;5939;56.522;14.950;2022-09-09T05:21:55;3.50;;;2.20;;
11763;SDS011;5939;56.522;14.950;2022-09-09T05:24:21;4.20;;;2.30;;
11763;SDS011;5939;56.522;14.950;2022-09-09T05:26:48;5.53;;;2.53;;
11763;SDS011;5939;56.522;14.950;2022-09-09T05:29:14;3.80;;;2.17;;
11763;SDS011;5939;56.522;14.950;2022-09-09T05:31:39;4.53;;;2.30;;
11763;SDS011;5939;56.522;14.950;2022-09-09T05:34:05;6.77;;;2.40;;
11763;SDS011;5939;56.522;14.950;2022-09-09T05:36:31;9.37;;;2.80;;
11763;SDS011;5939;56.522;14.950;2022-09-09T05:38:57;5.60;;;2.37;;
11763;SDS011;5939;56.522;14.950;2022-09-09T05:41:23;3.50;;;2.50;;
11763;SDS011;5939;56.522;14.950;2022-09-09T05:43:48;5.10;;;2.47;;
11763;SDS011;5939;56.522;14.950;2022-09-09T05:46:15;5.07;;;2.53;;
11763;SDS011;5939;56.522;14.950;2022-09-09T05:48:45;5.93;;;2.70;;
11763;SDS011;5939;56.522;14.950;2022-09-09T05:51:13;5.83;;;2.43;;
11763;SDS011;5939;56.522;14.950;2022-09-09T05:53:42;4.43;;;2.27;;
11763;SDS011;5939;56.522;14.950;2022-09-09T05:58:35;4.60;;;2.60;;
11763;SDS011;5939;56.522;14.950;2022-09-09T06:01:03;3.77;;;2.23;;
11763;SDS011;5939;56.522;14.950;2022-09-09T06:03:29;5.40;;;2.47;;
11763;SDS011;5939;56.522;14.950;2022-09-09T06:05:58;5.33;;;2.23;;
11763;SDS011;5939;56.522;14.950;2022-09-09T06:08:32;4.20;;;2.43;;
11763;SDS011;5939;56.522;14.950;2022-09-09T06:11:05;4.57;;;2.27;;
11763;SDS011;5939;56.522;14.950;2022-09-09T06:13:33;4.77;;;2.30;;
11763;SDS011;5939;56.522;14.950;2022-09-09T06:16:00;4.43;;;2.70;;
11763;SDS011;5939;56.522;14.950;2022-09-09T06:18:26;5.50;;;2.40;;
11763;SDS011;5939;56.522;14.950;2022-09-09T06:20:58;4.17;;;2.30;;
11763;SDS011;5939;56.522;14.950;2022-09-09T06:23:26;4.40;;;2.27;;
11763;SDS011;5939;56.522;14.950;2022-09-09T06:28:38;4.13;;;2.30;;
11763;SDS011;5939;56.522;14.950;2022-09-09T06:31:09;3.83;;;2.50;;
11763;SDS011;5939;56.522;14.950;2022-09-09T06:33:37;5.67;;;2.73;;
11763;SDS011;5939;56.522;14.950;2022-09-09T06:36:07;4.57;;;2.40;;
11763;SDS011;5939;56.522;14.950;2022-09-09T06:38:39;4.40;;;2.63;;
11763;SDS011;5939;56.522;14.950;2022-09-09T06:41:05;3.73;;;2.30;;
11763;SDS011;5939;56.522;14.950;2022-09-09T06:43:31;3.30;;;2.63;;
11763;SDS011;5939;56.522;14.950;2022-09-09T06:46:06;4.17;;;2.50;;
11763;SDS011;5939;56.522;14.950;2022-09-09T06:48:34;4.20;;;2.40;;
11763;SDS011;5939;56.522;14.950;2022-09-09T06:53:27;4.97;;;2.40;;
11763;SDS011;5939;56.522;14.950;2022-09-09T06:55:52;5.17;;;2.60;;
11763;SDS011;5939;56.522;14.950;2022-09-09T06:58:19;4.70;;;2.60;;
11763;SDS011;5939;56.522;14.950;2022-09-09T07:00:47;4.03;;;2.17;;
11763;SDS011;5939;56.522;14.950;2022-09-09T07:03:13;6.37;;;2.67;;
11763;SDS011;5939;56.522;14.950;2022-09-09T07:05:38;4.40;;;2.63;;
11763;SDS011;5939;56.522;14.950;2022-09-09T07:08:04;4.67;;;2.20;;
11763;SDS011;5939;56.522;14.950;2022-09-09T07:10:30;3.87;;;2.60;;
11763;SDS011;5939;56.522;14.950;2022-09-09T07:12:56;6.00;;;2.60;;
11763;SDS011;5939;56.522;14.950;2022-09-09T07:15:22;4.03;;;2.40;;
11763;SDS011;5939;56.522;14.950;2022-09-09T07:17:48;4.40;;;2.40;;
11763;SDS011;5939;56.522;14.950;2022-09-09T07:20:14;5.80;;;2.60;;
11763;SDS011;5939;56.522;14.950;2022-09-09T07:22:40;8.47;;;2.33;;
11763;SDS011;5939;56.522;14.950;2022-09-09T07:25:06;5.47;;;2.70;;
11763;SDS011;5939;56.522;14.950;2022-09-09T07:27:32;5.97;;;2.53;;
11763;SDS011;5939;56.522;14.950;2022-09-09T07:29:58;6.47;;;2.40;;
11763;SDS011;5939;56.522;14.950;2022-09-09T07:32:24;6.70;;;2.80;;
11763;SDS011;5939;56.522;14.950;2022-09-09T07:34:50;6.13;;;3.03;;
11763;SDS011;5939;56.522;14.950;2022-09-09T07:37:16;6.37;;;2.70;;
11763;SDS011;5939;56.522;14.950;2022-09-09T07:39:42;5.13;;;2.70;;
11763;SDS011;5939;56.522;14.950;2022-09-09T07:42:09;3.17;;;2.50;;
11763;SDS011;5939;56.522;14.950;2022-09-09T07:44:36;5.37;;;2.60;;
11763;SDS011;5939;56.522;14.950;2022-09-09T07:47:04;3.80;;;2.60;;
11763;SDS011;5939;56.522;14.950;2022-09-09T07:49:30;5.20;;;2.93;;
11763;SDS011;5939;56.522;14.950;2022-09-09T07:51:57;3.93;;;2.33;;
11763;SDS011;5939;56.522;14.950;2022-09-09T07:54:23;4.90;;;2.70;;
11763;SDS011;5939;56.522;14.950;2022-09-09T07:56:49;5.73;;;2.63;;
11763;SDS011;5939;56.522;14.950;2022-09-09T07:59:16;6.03;;;2.80;;
11763;SDS011;5939;56.522;14.950;2022-09-09T08:01:43;4.13;;;2.87;;
11763;SDS011;5939;56.522;14.950;2022-09-09T08:04:19;5.83;;;2.70;;
11763;SDS011;5939;56.522;14.950;2022-09-09T08:06:48;4.27;;;2.63;;
11763;SDS011;5939;56.522;14.950;2022-09-09T08:09:15;5.50;;;2.70;;
11763;SDS011;5939;56.522;14.950;2022-09-09T08:11:41;3.77;;;2.73;;
11763;SDS011;5939;56.522;14.950;2022-09-09T08:14:08;4.00;;;2.67;;
11763;SDS011;5939;56.522;14.950;2022-09-09T08:16:36;4.23;;;2.47;;
11763;SDS011;5939;56.522;14.950;2022-09-09T08:19:03;5.77;;;2.90;;
11763;SDS011;5939;56.522;14.950;2022-09-09T08:21:31;4.33;;;2.63;;
11763;SDS011;5939;56.522;14.950;2022-09-09T08:23:59;5.20;;;2.67;;
11763;SDS011;5939;56.522;14.950;2022-09-09T08:26:30;4.27;;;2.53;;
11763;SDS011;5939;56.522;14.950;2022-09-09T08:28:57;6.03;;;2.53;;
11763;SDS011;5939;56.522;14.950;2022-09-09T08:31:29;5.03;;;2.50;;
11763;SDS011;5939;56.522;14.950;2022-09-09T08:33:58;3.10;;;2.30;;
11763;SDS011;5939;56.522;14.950;2022-09-09T08:36:25;3.13;;;2.30;;
11763;SDS011;5939;56.522;14.950;2022-09-09T08:38:53;2.97;;;2.13;;
11763;SDS011;5939;56.522;14.950;2022-09-09T08:47:10;4.57;;;2.53;;
11763;SDS011;5939;56.522;14.950;2022-09-09T08:50:15;4.87;;;2.57;;
11763;SDS011;5939;56.522;14.950;2022-09-09T08:58:20;3.73;;;2.30;;
11763;SDS011;5939;56.522;14.950;2022-09-09T09:01:15;5.03;;;2.83;;
11763;SDS011;5939;56.522;14.950;2022-09-09T09:04:11;3.17;;;2.57;;
11763;SDS011;5939;56.522;14.950;2022-09-09T09:09:46;2.90;;;2.47;;
11763;SDS011;5939;56.522;14.950;2022-09-09T09:12:27;4.53;;;2.70;;
11763;SDS011;5939;56.522;14.950;2022-09-09T09:14:57;5.20;;;2.90;;
11763;SDS011;5939;56.522;14.950;2022-09-09T09:17:25;4.03;;;2.60;;
11763;SDS011;5939;56.522;14.950;2022-09-09T09:19:56;5.27;;;3.00;;
11763;SDS011;5939;56.522;14.950;2022-09-09T09:22:27;3.40;;;2.63;;
11763;SDS011;5939;56.522;14.950;2022-09-09T09:25:15;2.97;;;2.40;;
11763;SDS011;5939;56.522;14.950;2022-09-09T09:27:52;5.47;;;2.80;;
11763;SDS011;5939;56.522;14.950;2022-09-09T09:33:38;3.70;;;2.53;;
11763;SDS011;5939;56.522;14.950;2022-09-09T09:36:06;3.63;;;2.37;;
11763;SDS011;5939;56.522;14.950;2022-09-09T09:38:33;2.27;;;2.07;;
11763;SDS011;5939;56.522;14.950;2022-09-09T09:41:00;3.53;;;2.43;;
11763;SDS011;5939;56.522;14.950;2022-09-09T09:45:56;4.33;;;2.53;;
11763;SDS011;5939;56.522;14.950;2022-09-09T09:48:25;2.83;;;2.20;;
11763;SDS011;5939;56.522;14.950;2022-09-09T09:50:53;4.40;;;2.57;;
11763;SDS011;5939;56.522;14.950;2022-09-09T09:56:10;3.23;;;2.40;;
11763;SDS011;5939;56.522;14.950;2022-09-09T10:01:22;3.37;;;2.10;;
11763;SDS011;5939;56.522;14.950;2022-09-09T10:03:53;3.77;;;2.10;;
11763;SDS011;5939;56.522;14.950;2022-09-09T10:08:58;2.97;;;2.00;;
11763;SDS011;5939;56.522;14.950;2022-09-09T10:13:57;3.57;;;2.13;;
11763;SDS011;5939;56.522;14.950;2022-09-09T10:19:29;2.50;;;1.83;;
11763;SDS011;5939;56.522;14.950;2022-09-09T10:30:18;4.67;;;2.20;;
11763;SDS011;5939;56.522;14.950;2022-09-09T10:35:35;3.47;;;2.30;;
11763;SDS011;5939;56.522;14.950;2022-09-09T10:38:17;2.37;;;2.07;;
11763;SDS011;5939;56.522;14.950;2022-09-09T10:45:53;3.33;;;2.13;;
11763;SDS011;5939;56.522;14.950;2022-09-09T10:54:20;2.47;;;2.10;;
11763;SDS011;5939;56.522;14.950;2022-09-09T10:56:58;3.70;;;2.20;;
11763;SDS011;5939;56.522;14.950;2022-09-09T10:59:36;2.43;;;2.20;;
11763;SDS011;5939;56.522;14.950;2022-09-09T11:05:08;2.77;;;2.20;;
11763;SDS011;5939;56.522;14.950;2022-09-09T11:07:42;2.30;;;2.00;;
11763;SDS011;5939;56.522;14.950;2022-09-09T11:13:28;2.70;;;1.90;;
11763;SDS011;5939;56.522;14.950;2022-09-09T11:16:02;2.87;;;2.13;;
11763;SDS011;5939;56.522;14.950;2022-09-09T11:18:40;2.60;;;1.70;;
11763;SDS011;5939;56.522;14.950;2022-09-09T11:21:10;2.73;;;1.90;;
11763;SDS011;5939;56.522;14.950;2022-09-09T11:23:53;2.17;;;1.70;;
11763;SDS011;5939;56.522;14.950;2022-09-09T11:27:25;2.40;;;1.73;;
11763;SDS011;5939;56.522;14.950;2022-09-09T11:29:29;2.43;;;1.60;;
11763;SDS011;5939;56.522;14.950;2022-09-09T11:32:37;1.80;;;1.50;;
11763;SDS011;5939;56.522;14.950;2022-09-09T11:40:39;2.37;;;1.73;;
11763;SDS011;5939;56.522;14.950;2022-09-09T11:43:08;2.17;;;1.53;;
11763;SDS011;5939;56.522;14.950;2022-09-09T11:45:35;2.10;;;1.70;;
11763;SDS011;5939;56.522;14.950;2022-09-09T11:53:06;1.80;;;1.70;;
11763;SDS011;5939;56.522;14.950;2022-09-09T11:55:48;1.63;;;1.53;;
11763;SDS011;5939;56.522;14.950;2022-09-09T11:58:26;1.40;;;1.30;;
11763;SDS011;5939;56.522;14.950;2022-09-09T12:00:57;1.60;;;1.50;;
11763;SDS011;5939;56.522;14.950;2022-09-09T12:06:33;1.40;;;1.30;;
11763;SDS011;5939;56.522;14.950;2022-09-09T12:09:31;1.70;;;1.50;;
11763;SDS011;5939;56.522;14.950;2022-09-09T12:12:04;2.90;;;1.50;;
11763;SDS011;5939;56.522;14.950;2022-09-09T12:14:37;1.87;;;1.40;;
11763;SDS011;5939;56.522;14.950;2022-09-09T12:17:09;2.13;;;1.40;;
11763;SDS011;5939;56.522;14.950;2022-09-09T12:19:41;1.80;;;1.50;;
11763;SDS011;5939;56.522;14.950;2022-09-09T12:22:09;1.47;;;1.37;;
11763;SDS011;5939;56.522;14.950;2022-09-09T12:27:59;1.63;;;1.50;;
11763;SDS011;5939;56.522;14.950;2022-09-09T12:31:20;1.67;;;1.57;;
11763;SDS011;5939;56.522;14.950;2022-09-09T12:33:20;1.97;;;1.40;;
11763;SDS011;5939;56.522;14.950;2022-09-09T12:35:56;1.20;;;1.10;;
11763;SDS011;5939;56.522;14.950;2022-09-09T12:38:36;1.90;;;1.60;;
11763;SDS011;5939;56.522;14.950;2022-09-09T12:41:04;1.93;;;1.40;;
11763;SDS011;5939;56.522;14.950;2022-09-09T12:43:30;2.37;;;1.43;;
11763;SDS011;5939;56.522;14.950;2022-09-09T12:45:57;1.77;;;1.23;;
11763;SDS011;5939;56.522;14.950;2022-09-09T12:48:38;1.70;;;1.50;;
11763;SDS011;5939;56.522;14.950;2022-09-09T12:51:19;1.40;;;1.23;;
11763;SDS011;5939;56.522;14.950;2022-09-09T12:53:51;1.47;;;1.30;;
11763;SDS011;5939;56.522;14.950;2022-09-09T12:56:19;1.63;;;1.33;;
11763;SDS011;5939;56.522;14.950;2022-09-09T12:58:47;1.27;;;1.17;;
11763;SDS011;5939;56.522;14.950;2022-09-09T13:01:28;1.70;;;1.30;;
11763;SDS011;5939;56.522;14.950;2022-09-09T13:03:56;1.60;;;1.43;;
11763;SDS011;5939;56.522;14.950;2022-09-09T13:06:23;1.67;;;1.57;;
11763;SDS011;5939;56.522;14.950;2022-09-09T13:08:52;1.90;;;1.27;;
11763;SDS011;5939;56.522;14.950;2022-09-09T13:11:23;1.30;;;1.20;;
11763;SDS011;5939;56.522;14.950;2022-09-09T13:13:51;1.73;;;1.40;;
11763;SDS011;5939;56.522;14.950;2022-09-09T13:16:20;1.70;;;1.40;;
11763;SDS011;5939;56.522;14.950;2022-09-09T13:18:56;1.67;;;1.57;;
11763;SDS011;5939;56.522;14.950;2022-09-09T13:21:36;1.60;;;1.40;;
11763;SDS011;5939;56.522;14.950;2022-09-09T13:24:04;1.90;;;1.53;;
11763;SDS011;5939;56.522;14.950;2022-09-09T13:26:32;1.50;;;1.40;;
11763;SDS011;5939;56.522;14.950;2022-09-09T13:29:16;2.80;;;1.53;;
11763;SDS011;5939;56.522;14.950;2022-09-09T13:31:43;1.47;;;1.37;;
11763;SDS011;5939;56.522;14.950;2022-09-09T13:37:22;1.50;;;1.30;;
11763;SDS011;5939;56.522;14.950;2022-09-09T13:40:15;2.23;;;1.90;;
11763;SDS011;5939;56.522;14.950;2022-09-09T13:42:44;2.93;;;1.73;;
11763;SDS011;5939;56.522;14.950;2022-09-09T13:45:21;1.47;;;1.37;;
11763;SDS011;5939;56.522;14.950;2022-09-09T13:47:48;2.67;;;1.63;;
11763;SDS011;5939;56.522;14.950;2022-09-09T13:50:24;1.90;;;1.50;;
11763;SDS011;5939;56.522;14.950;2022-09-09T13:52:53;1.50;;;1.40;;
11763;SDS011;5939;56.522;14.950;2022-09-09T13:55:22;2.10;;;1.40;;
11763;SDS011;5939;56.522;14.950;2022-09-09T14:00:21;1.40;;;1.30;;
11763;SDS011;5939;56.522;14.950;2022-09-09T14:02:47;2.17;;;1.97;;
11763;SDS011;5939;56.522;14.950;2022-09-09T14:05:13;1.90;;;1.70;;
11763;SDS011;5939;56.522;14.950;2022-09-09T14:07:40;2.33;;;1.33;;
11763;SDS011;5939;56.522;14.950;2022-09-09T14:10:07;3.37;;;1.60;;
11763;SDS011;5939;56.522;14.950;2022-09-09T14:12:33;2.60;;;1.60;;
11763;SDS011;5939;56.522;14.950;2022-09-09T14:15:00;3.03;;;1.60;;
11763;SDS011;5939;56.522;14.950;2022-09-09T14:17:26;2.67;;;1.60;;
11763;SDS011;5939;56.522;14.950;2022-09-09T14:19:54;1.73;;;1.50;;
11763;SDS011;5939;56.522;14.950;2022-09-09T14:22:21;2.40;;;1.80;;
11763;SDS011;5939;56.522;14.950;2022-09-09T14:24:47;2.67;;;1.60;;
11763;SDS011;5939;56.522;14.950;2022-09-09T14:27:14;2.33;;;1.50;;
11763;SDS011;5939;56.522;14.950;2022-09-09T14:29:41;2.40;;;1.60;;
11763;SDS011;5939;56.522;14.950;2022-09-09T14:32:08;2.20;;;1.93;;
11763;SDS011;5939;56.522;14.950;2022-09-09T14:34:34;2.03;;;1.50;;
11763;SDS011;5939;56.522;14.950;2022-09-09T14:37:00;2.47;;;1.60;;
11763;SDS011;5939;56.522;14.950;2022-09-09T14:39:26;3.13;;;1.60;;
11763;SDS011;5939;56.522;14.950;2022-09-09T14:41:51;1.80;;;1.60;;
11763;SDS011;5939;56.522;14.950;2022-09-09T14:44:17;3.20;;;1.60;;
11763;SDS011;5939;56.522;14.950;2022-09-09T14:46:43;2.27;;;1.60;;
11763;SDS011;5939;56.522;14.950;2022-09-09T14:49:08;2.00;;;1.80;;
11763;SDS011;5939;56.522;14.950;2022-09-09T14:51:35;1.67;;;1.50;;
11763;SDS011;5939;56.522;14.950;2022-09-09T14:54:01;1.73;;;1.53;;
11763;SDS011;5939;56.522;14.950;2022-09-09T14:56:28;1.50;;;1.30;;
11763;SDS011;5939;56.522;14.950;2022-09-09T14:58:56;2.40;;;1.47;;
11763;SDS011;5939;56.522;14.950;2022-09-09T15:01:23;2.83;;;1.67;;
11763;SDS011;5939;56.522;14.950;2022-09-09T15:03:55;1.67;;;1.50;;
11763;SDS011;5939;56.522;14.950;2022-09-09T15:06:26;2.73;;;1.83;;
11763;SDS011;5939;56.522;14.950;2022-09-09T15:08:54;2.03;;;1.53;;
11763;SDS011;5939;56.522;14.950;2022-09-09T15:11:23;2.00;;;1.57;;
11763;SDS011;5939;56.522;14.950;2022-09-09T15:13:51;2.60;;;1.47;;
11763;SDS011;5939;56.522;14.950;2022-09-09T15:16:20;2.57;;;1.90;;
11763;SDS011;5939;56.522;14.950;2022-09-09T15:18:53;1.97;;;1.67;;
11763;SDS011;5939;56.522;14.950;2022-09-09T15:21:20;2.03;;;1.43;;
11763;SDS011;5939;56.522;14.950;2022-09-09T15:23:48;2.40;;;1.63;;
11763;SDS011;5939;56.522;14.950;2022-09-09T15:26:14;1.70;;;1.50;;
11763;SDS011;5939;56.522;14.950;2022-09-09T15:28:41;2.00;;;1.80;;
11763;SDS011;5939;56.522;14.950;2022-09-09T15:31:19;1.80;;;1.50;;
11763;SDS011;5939;56.522;14.950;2022-09-09T15:36:20;1.80;;;1.60;;
11763;SDS011;5939;56.522;14.950;2022-09-09T15:38:46;3.17;;;2.20;;
11763;SDS011;5939;56.522;14.950;2022-09-09T15:41:13;2.97;;;1.90;;
11763;SDS011;5939;56.522;14.950;2022-09-09T15:43:43;1.50;;;1.40;;
11763;SDS011;5939;56.522;14.950;2022-09-09T15:48:42;2.07;;;1.80;;
11763;SDS011;5939;56.522;14.950;2022-09-09T15:51:11;1.90;;;1.70;;
11763;SDS011;5939;56.522;14.950;2022-09-09T15:53:38;1.73;;;1.63;;
11763;SDS011;5939;56.522;14.950;2022-09-09T15:56:07;1.70;;;1.60;;
11763;SDS011;5939;56.522;14.950;2022-09-09T15:58:33;1.77;;;1.40;;
11763;SDS011;5939;56.522;14.950;2022-09-09T16:01:04;1.70;;;1.60;;
11763;SDS011;5939;56.522;14.950;2022-09-09T16:03:34;2.20;;;1.50;;
11763;SDS011;5939;56.522;14.950;2022-09-09T16:06:00;2.83;;;1.60;;
11763;SDS011;5939;56.522;14.950;2022-09-09T16:08:31;3.03;;;1.63;;
11763;SDS011;5939;56.522;14.950;2022-09-09T16:11:03;1.63;;;1.53;;
11763;SDS011;5939;56.522;14.950;2022-09-09T16:13:32;1.50;;;1.40;;
11763;SDS011;5939;56.522;14.950;2022-09-09T16:15:59;3.00;;;1.60;;
11763;SDS011;5939;56.522;14.950;2022-09-09T16:18:24;2.80;;;1.70;;
11763;SDS011;5939;56.522;14.950;2022-09-09T16:20:56;1.73;;;1.47;;
11763;SDS011;5939;56.522;14.950;2022-09-09T16:23:21;2.13;;;1.50;;
11763;SDS011;5939;56.522;14.950;2022-09-09T16:25:54;2.33;;;1.60;;
11763;SDS011;5939;56.522;14.950;2022-09-09T16:28:20;2.20;;;1.50;;
11763;SDS011;5939;56.522;14.950;2022-09-09T16:30:47;1.60;;;1.50;;
11763;SDS011;5939;56.522;14.950;2022-09-09T16:33:13;1.70;;;1.60;;
11763;SDS011;5939;56.522;14.950;2022-09-09T16:35:42;2.27;;;1.40;;
11763;SDS011;5939;56.522;14.950;2022-09-09T16:38:08;2.67;;;1.60;;
11763;SDS011;5939;56.522;14.950;2022-09-09T16:40:34;2.13;;;1.77;;
11763;SDS011;5939;56.522;14.950;2022-09-09T16:43:01;3.07;;;1.80;;
11763;SDS011;5939;56.522;14.950;2022-09-09T16:45:27;2.33;;;1.90;;
11763;SDS011;5939;56.522;14.950;2022-09-09T16:47:54;1.80;;;1.60;;
11763;SDS011;5939;56.522;14.950;2022-09-09T16:50:20;1.83;;;1.60;;
11763;SDS011;5939;56.522;14.950;2022-09-09T16:52:45;2.03;;;1.60;;
11763;SDS011;5939;56.522;14.950;2022-09-09T16:55:11;1.97;;;1.50;;
11763;SDS011;5939;56.522;14.950;2022-09-09T16:57:36;2.20;;;1.93;;
11763;SDS011;5939;56.522;14.950;2022-09-09T17:00:03;2.53;;;1.87;;
11763;SDS011;5939;56.522;14.950;2022-09-09T17:02:30;2.13;;;1.73;;
11763;SDS011;5939;56.522;14.950;2022-09-09T17:04:56;2.97;;;1.83;;
11763;SDS011;5939;56.522;14.950;2022-09-09T17:07:22;3.23;;;1.80;;
11763;SDS011;5939;56.522;14.950;2022-09-09T17:09:48;2.43;;;1.87;;
11763;SDS011;5939;56.522;14.950;2022-09-09T17:12:14;1.80;;;1.60;;
11763;SDS011;5939;56.522;14.950;2022-09-09T17:14:41;1.73;;;1.47;;
11763;SDS011;5939;56.522;14.950;2022-09-09T17:17:07;1.97;;;1.70;;
11763;SDS011;5939;56.522;14.950;2022-09-09T17:19:32;2.30;;;1.67;;
11763;SDS011;5939;56.522;14.950;2022-09-09T17:21:58;2.73;;;2.10;;
11763;SDS011;5939;56.522;14.950;2022-09-09T17:24:25;1.83;;;1.67;;
11763;SDS011;5939;56.522;14.950;2022-09-09T17:26:53;5.73;;;3.07;;
11763;SDS011;5939;56.522;14.950;2022-09-09T17:29:20;3.63;;;2.93;;